Time;durP1;ratioP1;P1;durP2;ratioP2;P2;SDS_P1;SDS_P2;PMS_P1;PMS_P2;Temp;Humidity;BMP_temperature;BMP_pressure;BME280_temperature;BME280_humidity;BME280_pressure;Samples;Min_cycle;Max_cycle;Signal;HPM_P1;HPM_P2
2022/05/22 00:00:09;;;;;;;5.00;0.57;;;;;;;13.25;58.09;98319.94;1677253;85;21027;-66
2022/05/22 00:02:41;;;;;;;5.08;0.80;;;;;;;13.23;58.23;98323.64;1677217;85;21007;-67
2022/05/22 00:05:10;;;;;;;3.33;0.60;;;;;;;13.15;58.26;98329.03;1676832;85;21572;-67
2022/05/22 00:07:38;;;;;;;5.60;0.75;;;;;;;13.13;58.09;98324.48;1676938;85;21007;-69
2022/05/22 00:10:05;;;;;;;1.67;0.50;;;;;;;13.10;57.86;98333.48;1677097;85;21038;-66
2022/05/22 00:12:31;;;;;;;3.45;0.55;;;;;;;13.05;57.69;98319.17;1676792;85;21071;-67
2022/05/22 00:14:58;;;;;;;2.98;0.40;;;;;;;12.98;57.74;98324.77;1677204;84;20928;-66
2022/05/22 00:17:25;;;;;;;4.03;0.60;;;;;;;12.92;57.83;98319.90;1677024;85;21222;-66
2022/05/22 00:19:51;;;;;;;2.05;0.60;;;;;;;12.86;57.98;98325.72;1677156;85;21539;-68
2022/05/22 00:22:18;;;;;;;8.30;0.75;;;;;;;12.84;57.84;98325.31;1677456;85;20991;-65
2022/05/22 00:24:46;;;;;;;1.55;0.30;;;;;;;12.80;57.74;98323.62;1676929;85;21421;-65
2022/05/22 00:27:12;;;;;;;4.55;0.75;;;;;;;12.75;57.92;98314.47;1677134;85;21499;-66
2022/05/22 00:29:39;;;;;;;5.08;0.60;;;;;;;12.73;58.08;98322.89;1677200;85;21497;-68
2022/05/22 00:32:08;;;;;;;4.17;0.50;;;;;;;12.70;58.14;98323.05;1677177;85;20963;-67
2022/05/22 00:34:37;;;;;;;2.37;0.60;;;;;;;12.68;58.21;98313.51;1677116;85;20923;-65
2022/05/22 00:37:04;;;;;;;11.75;0.72;;;;;;;12.69;58.36;98315.13;1676997;85;21030;-66
2022/05/22 00:39:33;;;;;;;1.60;0.70;;;;;;;12.68;58.51;98316.27;1677090;84;21023;-65
2022/05/22 00:42:01;;;;;;;7.17;0.50;;;;;;;12.74;58.86;98312.85;1677157;85;21094;-67
2022/05/22 00:44:30;;;;;;;1.02;0.53;;;;;;;12.78;59.11;98312.92;1676999;85;20954;-65
2022/05/22 00:46:57;;;;;;;12.20;1.75;;;;;;;12.83;58.81;98309.87;1677041;85;20980;-65
2022/05/22 00:49:27;;;;;;;1.87;0.90;;;;;;;12.85;59.05;98309.50;1677249;85;21019;-65
2022/05/22 00:52:07;;;;;;;9.80;1.10;;;;;;;12.87;59.24;98310.75;1680022;82;21574;-66
2022/05/22 00:54:43;;;;;;;15.58;3.05;;;;;;;12.88;59.33;98305.43;1734738;82;21754;-64
2022/05/22 00:57:24;;;;;;;13.88;1.00;;;;;;;12.85;59.26;98311.70;1734931;82;21082;-65
2022/05/22 01:00:01;;;;;;;6.40;0.70;;;;;;;12.77;59.55;98304.43;1734693;82;20983;-66
2022/05/22 01:03:26;;;;;;;8.25;1.10;;;;;;;12.69;59.77;98300.73;1734934;82;20943;-67
2022/05/22 01:04:56;;;;;;;8.63;0.60;;;;;;;12.63;60.09;98292.50;1730831;82;20951;-66
2022/05/22 01:07:23;;;;;;;3.45;0.70;;;;;;;12.59;60.24;98297.17;1734575;82;21933;-68
2022/05/22 01:09:49;;;;;;;1.85;0.62;;;;;;;12.53;60.33;98293.31;1734895;82;21124;-66
2022/05/22 01:12:19;;;;;;;2.47;0.75;;;;;;;12.47;60.36;98291.20;1734807;82;21030;-66
2022/05/22 01:14:48;;;;;;;2.05;0.65;;;;;;;12.41;60.72;98287.92;1735101;82;20947;-67
2022/05/22 01:17:16;;;;;;;0.60;0.50;;;;;;;12.37;60.86;98280.13;1734706;82;21448;-66
2022/05/22 01:19:58;;;;;;;1.12;0.60;;;;;;;12.32;61.05;98283.98;1734850;82;21788;-67
2022/05/22 01:22:27;;;;;;;3.77;0.62;;;;;;;12.29;61.25;98281.38;1734867;82;21006;-65
2022/05/22 01:24:55;;;;;;;3.12;0.70;;;;;;;12.31;61.57;98274.11;1735335;82;21007;-67
2022/05/22 01:27:21;;;;;;;2.55;0.82;;;;;;;12.32;61.63;98267.41;1735106;82;20943;-67
2022/05/22 01:29:50;;;;;;;1.30;0.47;;;;;;;12.34;61.79;98268.43;1734613;82;21548;-66
2022/05/22 01:32:17;;;;;;;1.87;0.60;;;;;;;12.39;61.93;98270.34;1734854;82;21562;-66
2022/05/22 01:34:46;;;;;;;2.72;0.75;;;;;;;12.40;61.70;98259.49;1735200;82;21049;-67
2022/05/22 01:37:14;;;;;;;2.72;0.82;;;;;;;12.41;61.60;98259.73;1734744;82;20953;-65
2022/05/22 01:39:44;;;;;;;3.65;1.60;;;;;;;12.37;61.53;98261.60;1742963;81;20952;-67
2022/05/22 01:42:10;;;;;;;4.72;0.80;;;;;;;12.32;61.54;98256.97;1752663;82;21562;-66
2022/05/22 01:44:37;;;;;;;2.80;0.60;;;;;;;12.32;61.81;98259.12;1752528;82;21423;-67
2022/05/22 01:47:05;;;;;;;2.75;1.00;;;;;;;12.34;61.97;98251.86;1752318;82;20917;-68
2022/05/22 01:49:32;;;;;;;3.72;0.60;;;;;;;12.37;62.13;98250.55;1752560;81;21056;-66
2022/05/22 01:52:00;;;;;;;6.67;0.60;;;;;;;12.40;62.03;98251.81;1752608;82;21016;-66
2022/05/22 01:54:27;;;;;;;1.45;0.90;;;;;;;12.42;62.29;98250.84;1753045;81;21116;-67
2022/05/22 01:56:57;;;;;;;6.03;0.68;;;;;;;12.43;61.95;98250.27;1752525;82;21173;-65
2022/05/22 01:59:26;;;;;;;1.45;0.85;;;;;;;12.38;62.01;98245.27;1752256;82;21094;-65
2022/05/22 02:01:57;;;;;;;2.58;0.85;;;;;;;12.37;62.51;98245.61;1750740;82;21451;-65
2022/05/22 02:04:26;;;;;;;1.35;0.50;;;;;;;12.37;62.36;98243.65;1752377;82;20997;-68
2022/05/22 02:09:40;;;;;;;5.33;1.20;;;;;;;12.38;62.33;98236.98;1752195;82;21109;-65
2022/05/22 02:12:11;;;;;;;4.87;1.22;;;;;;;12.34;62.54;98234.72;1752537;82;20930;-67
2022/05/22 02:14:37;;;;;;;10.25;1.62;;;;;;;12.33;62.64;98231.75;1752398;82;21442;-66
2022/05/22 02:17:06;;;;;;;4.83;1.47;;;;;;;12.34;62.62;98225.63;1723563;82;20945;-66
2022/05/22 02:19:34;;;;;;;4.60;1.42;;;;;;;12.32;62.77;98228.75;1751940;81;20970;-65
2022/05/22 02:22:03;;;;;;;5.95;1.57;;;;;;;12.33;62.76;98222.66;1752611;82;21260;-65
2022/05/22 02:24:31;;;;;;;5.00;1.52;;;;;;;12.32;62.98;98217.70;1723352;82;20990;-65
2022/05/22 02:27:06;;;;;;;7.37;1.70;;;;;;;12.35;63.16;98212.05;1752422;82;21024;-68
2022/05/22 02:29:36;;;;;;;10.40;2.62;;;;;;;12.36;62.82;98213.06;1752695;81;20985;-68
2022/05/22 02:32:04;;;;;;;2.40;1.40;;;;;;;12.29;63.28;98208.20;1752515;82;21491;-65
2022/05/22 02:34:33;;;;;;;5.08;1.42;;;;;;;12.34;63.55;98204.33;1752773;81;21190;-65
2022/05/22 02:37:01;;;;;;;2.33;1.35;;;;;;;12.38;63.72;98205.22;1752179;82;20933;-66
2022/05/22 02:39:28;;;;;;;5.10;1.37;;;;;;;12.45;63.70;98200.98;1752247;81;20974;-65
2022/05/22 02:42:05;;;;;;;8.43;1.17;;;;;;;12.47;63.45;98201.42;1722998;82;20946;-65
2022/05/22 02:44:33;;;;;;;6.20;1.32;;;;;;;12.48;63.61;98201.63;1752356;82;21490;-67
2022/05/22 02:47:00;;;;;;;9.83;1.47;;;;;;;12.48;63.89;98191.97;1752687;82;21968;-65
2022/05/22 02:49:26;;;;;;;3.60;1.25;;;;;;;12.53;63.98;98188.33;1752161;82;20994;-67
2022/05/22 02:51:53;;;;;;;3.30;1.12;;;;;;;12.57;63.96;98184.83;1752513;82;21055;-65
2022/05/22 02:54:21;;;;;;;4.30;0.90;;;;;;;12.57;63.75;98184.26;1752452;82;20985;-64
2022/05/22 02:56:55;;;;;;;8.83;1.07;;;;;;;12.55;64.03;98181.06;1752693;82;20984;-68
2022/05/22 02:59:35;;;;;;;10.03;2.10;;;;;;;12.58;64.15;98176.17;1751235;81;21224;-65
2022/05/22 03:02:09;;;;;;;1.67;0.95;;;;;;;12.60;64.35;98178.00;1751757;82;20859;-66
2022/05/22 03:04:38;;;;;;;5.50;1.10;;;;;;;12.70;64.55;98171.64;1752367;82;20994;-66
2022/05/22 03:07:07;;;;;;;4.28;1.17;;;;;;;12.75;64.63;98174.09;1752639;82;21013;-66
2022/05/22 03:09:39;;;;;;;13.03;1.22;;;;;;;12.78;64.64;98161.73;1752072;82;21064;-65
2022/05/22 03:12:15;;;;;;;5.50;1.12;;;;;;;12.83;64.56;98165.36;1752629;82;21709;-66
2022/05/22 03:14:44;;;;;;;4.70;1.10;;;;;;;12.85;64.66;98158.86;1752415;82;20993;-67
2022/05/22 03:17:10;;;;;;;3.77;1.20;;;;;;;12.90;64.68;98157.17;1752200;82;20988;-66
2022/05/22 03:19:39;;;;;;;5.20;0.85;;;;;;;12.89;64.59;98156.39;1751858;82;21509;-66
2022/05/22 03:22:06;;;;;;;5.65;1.22;;;;;;;12.88;64.56;98158.15;1752512;82;21439;-65
2022/05/22 03:24:33;;;;;;;5.78;1.30;;;;;;;12.89;64.75;98145.34;1752669;82;21784;-67
2022/05/22 03:27:06;;;;;;;5.42;1.55;;;;;;;12.89;64.50;98142.58;1684589;82;21006;-66
2022/05/22 03:29:32;;;;;;;9.50;1.57;;;;;;;12.88;64.81;98142.34;1752607;81;20939;-66
2022/05/22 03:31:59;;;;;;;2.67;0.90;;;;;;;12.90;64.78;98137.25;1752302;82;21100;-67
2022/05/22 03:34:26;;;;;;;6.90;1.10;;;;;;;12.92;64.88;98138.26;1752409;82;20922;-68
2022/05/22 03:36:55;;;;;;;2.47;0.90;;;;;;;12.89;64.77;98131.52;1752262;82;22049;-67
2022/05/22 03:39:21;;;;;;;4.78;1.12;;;;;;;12.87;65.15;98131.66;1723787;81;21021;-65
2022/05/22 03:41:49;;;;;;;4.80;1.27;;;;;;;12.86;65.29;98130.84;1769008;81;21068;-65
2022/05/22 03:44:19;;;;;;;3.50;1.57;;;;;;;12.89;65.33;98124.61;1769111;81;20941;-68
2022/05/22 03:46:48;;;;;;;6.80;1.12;;;;;;;12.88;65.45;98120.23;1769133;81;21097;-65
2022/05/22 03:49:17;;;;;;;2.77;1.30;;;;;;;12.88;65.58;98122.99;1769518;81;21538;-66
2022/05/22 03:51:45;;;;;;;12.35;2.00;;;;;;;12.89;65.50;98119.08;1769154;81;21579;-66
2022/05/22 03:54:14;;;;;;;7.67;1.30;;;;;;;12.93;65.44;98116.95;1769505;81;21048;-67
2022/05/22 03:56:42;;;;;;;9.75;1.50;;;;;;;12.90;65.35;98128.95;1769598;81;21055;-65
2022/05/22 03:59:12;;;;;;;8.65;1.40;;;;;;;12.87;65.58;98120.60;1768136;81;21067;-64
2022/05/22 04:01:40;;;;;;;3.90;1.32;;;;;;;12.87;65.72;98119.22;1768889;81;21123;-67
2022/05/22 04:04:07;;;;;;;5.08;1.85;;;;;;;12.86;65.74;98115.64;1769253;81;21032;-66
2022/05/22 04:06:34;;;;;;;2.30;1.20;;;;;;;12.87;66.02;98108.97;1769184;81;21065;-65
2022/05/22 04:09:03;;;;;;;3.85;1.20;;;;;;;12.89;65.89;98108.59;1769354;81;20948;-64
2022/05/22 04:11:49;;;;;;;6.55;1.75;;;;;;;12.86;65.95;98112.11;1767787;81;21522;-65
2022/05/22 04:14:19;;;;;;;5.35;1.75;;;;;;;12.88;66.07;98109.17;1769475;81;21109;-67
2022/05/22 04:16:48;;;;;;;5.10;1.27;;;;;;;12.89;65.87;98108.02;1768487;81;20948;-66
2022/05/22 04:19:15;;;;;;;3.55;1.35;;;;;;;12.89;65.72;98101.69;1769434;81;21020;-68
2022/05/22 04:21:43;;;;;;;11.57;1.65;;;;;;;12.87;65.76;98108.16;1769018;81;21048;-66
2022/05/22 04:27:03;;;;;;;3.15;1.15;;;;;;;12.83;65.92;98108.09;1769403;81;21155;-67
2022/05/22 04:29:34;;;;;;;10.25;1.45;;;;;;;12.85;65.90;98100.24;1744357;81;21441;-65
2022/05/22 04:32:03;;;;;;;4.33;1.25;;;;;;;12.91;66.07;98104.89;1769536;81;21064;-63
2022/05/22 04:34:34;;;;;;;5.35;1.95;;;;;;;12.99;66.16;98108.55;1768417;81;20901;-68
2022/05/22 04:37:06;;;;;;;3.35;1.32;;;;;;;13.07;66.12;98096.42;1769609;81;20933;-66
2022/05/22 04:39:34;;;;;;;3.05;1.40;;;;;;;13.15;65.22;98104.27;1767906;81;21249;-65
2022/05/22 04:42:04;;;;;;;3.75;1.32;;;;;;;13.22;65.46;98102.97;1769040;81;21501;-66
2022/05/22 04:44:31;;;;;;;3.67;1.10;;;;;;;13.29;65.32;98093.20;1769263;81;21521;-64
2022/05/22 04:47:00;;;;;;;9.33;1.72;;;;;;;13.32;65.18;98093.83;1765629;81;20921;-68
2022/05/22 04:49:26;;;;;;;6.25;1.40;;;;;;;13.30;64.36;98095.58;1769361;81;20936;-67
2022/05/22 04:51:58;;;;;;;2.20;1.25;;;;;;;13.24;64.11;98087.37;1769173;81;21122;-66
2022/05/22 04:54:25;;;;;;;6.90;1.37;;;;;;;13.23;64.48;98091.33;1744858;81;21524;-66
2022/05/22 04:56:54;;;;;;;4.05;1.17;;;;;;;13.26;64.22;98091.95;1767110;81;20977;-68
2022/05/22 04:59:21;;;;;;;8.63;1.30;;;;;;;13.23;63.92;98092.13;1769223;81;20984;-66
2022/05/22 05:01:50;;;;;;;1.60;0.85;;;;;;;13.22;64.07;98094.67;1769084;81;21008;-67
2022/05/22 05:04:20;;;;;;;9.23;1.60;;;;;;;13.24;64.16;98087.37;1765941;81;21356;-66
2022/05/22 05:06:52;;;;;;;2.30;1.00;;;;;;;13.24;63.76;98094.30;1767654;81;21040;-66
2022/05/22 05:09:24;;;;;;;7.35;1.12;;;;;;;13.23;63.72;98094.90;1762668;81;21068;-68
2022/05/22 05:11:50;;;;;;;6.22;1.60;;;;;;;13.25;63.58;98098.67;1769259;81;21541;-66
2022/05/22 05:14:17;;;;;;;4.40;1.65;;;;;;;13.27;63.61;98092.97;1769261;81;21481;-66
2022/05/22 05:16:43;;;;;;;7.15;1.00;;;;;;;13.30;63.37;98092.81;1769241;81;22089;-67
2022/05/22 05:19:13;;;;;;;6.37;1.20;;;;;;;13.29;63.34;98096.73;1769137;81;20933;-69
2022/05/22 05:21:43;;;;;;;4.85;1.07;;;;;;;13.26;63.07;98098.88;1743731;81;21040;-69
2022/05/22 05:24:11;;;;;;;5.55;1.00;;;;;;;13.20;62.96;98094.84;1769243;81;21017;-64
2022/05/22 05:26:39;;;;;;;3.40;1.02;;;;;;;13.17;62.97;98097.75;1769554;81;21016;-69
2022/05/22 05:29:07;;;;;;;5.70;1.47;;;;;;;13.13;62.82;98093.58;1767607;81;21146;-66
2022/05/22 05:31:35;;;;;;;4.20;1.10;;;;;;;13.15;63.22;98100.12;1764325;81;21430;-68
2022/05/22 05:34:02;;;;;;;4.55;1.20;;;;;;;13.14;63.46;98095.73;1769364;81;21060;-68
2022/05/22 05:36:33;;;;;;;2.35;1.32;;;;;;;13.15;63.69;98095.36;1768928;81;21017;-66
2022/05/22 05:39:08;;;;;;;3.72;1.15;;;;;;;13.22;63.93;98090.52;1723252;81;21027;-67
2022/05/22 05:41:55;;;;;;;9.88;1.00;;;;;;;13.29;64.17;98091.81;1768386;81;21801;-68
2022/05/22 05:44:21;;;;;;;2.85;1.00;;;;;;;13.32;63.42;98096.02;1769267;81;20983;-67
2022/05/22 05:46:59;;;;;;;10.55;2.55;;;;;;;13.33;63.07;98096.80;1769012;81;20993;-66
2022/05/22 05:49:28;;;;;;;6.15;1.00;;;;;;;13.33;63.19;98096.22;1768805;81;20959;-67
2022/05/22 05:51:56;;;;;;;3.15;1.10;;;;;;;13.36;63.20;98091.31;1765478;81;21474;-66
2022/05/22 05:54:25;;;;;;;1.20;0.90;;;;;;;13.41;63.25;98096.33;1769108;81;21244;-67
2022/05/22 05:57:14;;;;;;;5.30;1.20;;;;;;;13.44;63.50;98099.12;1707541;84;21036;-67
2022/05/22 05:59:43;;;;;;;4.87;1.00;;;;;;;13.47;63.41;98098.97;1707320;84;21056;-66
2022/05/22 06:02:14;;;;;;;9.28;1.42;;;;;;;13.50;63.73;98085.77;1731106;81;21017;-66
2022/05/22 06:04:41;;;;;;;6.05;1.22;;;;;;;13.50;63.79;98096.25;1768617;81;21040;-65
2022/05/22 06:07:09;;;;;;;4.45;1.27;;;;;;;13.48;63.53;98095.02;1769314;81;21034;-67
2022/05/22 06:09:38;;;;;;;6.65;0.88;;;;;;;13.41;64.14;98087.42;1769214;81;20980;-66
2022/05/22 06:12:23;;;;;;;3.65;1.00;;;;;;;13.35;63.95;98092.50;1768581;81;21488;-67
2022/05/22 06:14:54;;;;;;;4.50;0.70;;;;;;;13.27;63.91;98088.81;1768111;81;21009;-68
2022/05/22 06:17:38;;;;;;;5.85;1.10;;;;;;;13.19;64.09;98095.42;1769210;81;21043;-66
2022/05/22 06:20:08;;;;;;;4.05;1.10;;;;;;;13.12;64.10;98096.69;1769539;81;21506;-67
2022/05/22 06:22:42;;;;;;;1.07;0.80;;;;;;;13.03;64.47;98093.61;1768883;81;20957;-67
2022/05/22 06:25:13;;;;;;;12.45;0.90;;;;;;;12.96;64.68;98096.28;1765561;81;20945;-68
2022/05/22 06:27:52;;;;;;;5.03;0.95;;;;;;;12.91;65.12;98093.83;1767873;81;21060;-67
2022/05/22 06:30:36;;;;;;;6.85;1.20;;;;;;;12.92;65.75;98094.61;1769274;81;21446;-67
2022/05/22 06:33:16;;;;;;;2.67;0.90;;;;;;;12.95;65.60;98094.66;1768166;81;21271;-68
2022/05/22 06:36:09;;;;;;;3.25;1.52;;;;;;;12.99;65.87;98083.67;1745553;81;21080;-66
2022/05/22 06:41:33;;;;;;;4.67;1.20;;;;;;;13.09;66.09;98091.91;1745286;81;21021;-67
2022/05/22 06:44:19;;;;;;;2.47;0.98;;;;;;;13.14;66.41;98088.25;1752380;82;20966;-67
2022/05/22 06:47:06;;;;;;;8.33;1.10;;;;;;;13.24;66.73;98089.56;1670523;86;21406;-66
2022/05/22 06:49:35;;;;;;;5.00;1.10;;;;;;;13.37;66.34;98094.28;1660067;86;21012;-68
2022/05/22 06:52:07;;;;;;;3.70;1.10;;;;;;;13.47;66.25;98082.37;1700518;82;21474;-68
2022/05/22 06:54:42;;;;;;;3.42;1.32;;;;;;;13.54;66.11;98099.10;1749991;82;21573;-65
2022/05/22 06:57:26;;;;;;;1.27;0.60;;;;;;;13.54;65.76;98089.42;1670378;86;21083;-64
2022/05/22 06:59:57;;;;;;;3.12;1.20;;;;;;;13.57;66.21;98090.05;1723981;82;21271;-69
2022/05/22 07:02:43;;;;;;;11.10;1.20;;;;;;;13.67;66.23;98097.46;1752500;82;20953;-66
2022/05/22 07:05:11;;;;;;;4.90;1.22;;;;;;;13.73;65.81;98095.37;1751527;82;21012;-65
2022/05/22 07:07:51;;;;;;;2.72;1.12;;;;;;;13.74;64.88;98105.29;1724926;82;21980;-64
2022/05/22 07:13:09;;;;;;;3.33;1.05;;;;;;;13.59;63.94;98090.48;1748200;81;21415;-66
2022/05/22 07:15:42;;;;;;;11.10;1.20;;;;;;;13.48;64.18;98088.10;1752232;82;20953;-67
2022/05/22 07:18:26;;;;;;;1.30;0.60;;;;;;;13.44;64.48;98091.42;1751725;81;20906;-66
2022/05/22 07:20:57;;;;;;;5.45;1.10;;;;;;;13.49;64.83;98085.56;1751283;81;20958;-67
2022/05/22 07:23:42;;;;;;;7.85;0.90;;;;;;;13.59;65.13;98086.90;1752461;82;20989;-67
2022/05/22 07:26:13;;;;;;;1.82;0.90;;;;;;;13.65;64.39;98081.23;1747440;81;21571;-67
2022/05/22 07:28:41;;;;;;;6.05;1.27;;;;;;;13.65;64.24;98092.91;1700916;81;21028;-67
2022/05/22 07:31:21;;;;;;;1.92;0.75;;;;;;;13.62;63.97;98087.53;1750519;82;21552;-67
2022/05/22 07:34:08;;;;;;;2.58;1.10;;;;;;;13.58;63.55;98089.47;1752316;82;21462;-67
2022/05/22 07:36:58;;;;;;;3.58;1.00;;;;;;;13.51;63.52;98085.99;1752735;82;20949;-65
2022/05/22 07:39:44;;;;;;;3.42;1.00;;;;;;;13.48;63.78;98082.56;1752348;82;21515;-65
2022/05/22 07:42:23;;;;;;;4.53;1.30;;;;;;;13.43;63.52;98073.20;1764407;81;21541;-67
2022/05/22 07:45:12;;;;;;;6.03;1.45;;;;;;;13.37;63.78;98083.22;1769306;81;21024;-66
2022/05/22 07:48:00;;;;;;;5.03;1.40;;;;;;;13.32;63.66;98089.10;1768264;81;20937;-66
2022/05/22 07:50:37;;;;;;;2.15;1.20;;;;;;;13.24;63.84;98092.91;1767095;81;20965;-68
2022/05/22 07:53:12;;;;;;;3.55;0.90;;;;;;;13.12;63.99;98093.34;1753516;81;21158;-64
2022/05/22 07:55:59;;;;;;;2.33;1.00;;;;;;;13.01;64.26;98089.05;1769009;81;21533;-65
2022/05/22 07:58:34;;;;;;;2.30;1.20;;;;;;;12.96;64.72;98101.81;1765717;81;21013;-67
2022/05/22 08:01:01;;;;;;;5.75;1.17;;;;;;;12.96;65.29;98097.66;1768983;81;20972;-67
2022/05/22 08:03:46;;;;;;;3.33;0.88;;;;;;;12.98;65.91;98096.68;1769192;81;20992;-66
2022/05/22 08:06:15;;;;;;;2.12;1.02;;;;;;;12.99;66.84;98096.11;1766747;81;21126;-66
2022/05/22 08:08:44;;;;;;;3.33;0.90;;;;;;;12.99;67.45;98107.97;1769099;81;21017;-68
2022/05/22 08:11:14;;;;;;;9.23;1.10;;;;;;;12.97;67.29;98100.63;1765516;81;20948;-67
2022/05/22 08:13:43;;;;;;;3.22;1.42;;;;;;;12.90;67.29;98110.18;1767948;81;20988;-67
2022/05/22 08:16:09;;;;;;;2.95;1.02;;;;;;;12.84;67.98;98109.72;1769079;81;21000;-65
2022/05/22 08:18:37;;;;;;;4.65;1.27;;;;;;;12.82;68.29;98111.23;1769515;81;22262;-66
2022/05/22 08:21:06;;;;;;;4.70;1.20;;;;;;;12.88;68.80;98104.25;1769291;81;21045;-67
2022/05/22 08:23:35;;;;;;;4.55;0.93;;;;;;;12.96;69.05;98110.67;1768631;81;21008;-68
2022/05/22 08:26:03;;;;;;;2.50;1.00;;;;;;;13.03;69.25;98099.73;1768475;81;20972;-68
2022/05/22 08:28:32;;;;;;;1.80;0.90;;;;;;;13.08;68.93;98102.19;1769265;81;20996;-68
2022/05/22 08:31:00;;;;;;;7.28;1.20;;;;;;;13.12;69.27;98108.55;1769189;81;21207;-67
2022/05/22 08:33:26;;;;;;;2.87;0.85;;;;;;;13.22;69.44;98103.57;1769470;81;21486;-63
2022/05/22 08:35:53;;;;;;;2.02;0.60;;;;;;;13.22;69.55;98109.10;1768930;81;21489;-66
2022/05/22 08:38:20;;;;;;;2.42;0.88;;;;;;;13.29;69.83;98108.41;1769313;81;20965;-67
2022/05/22 08:41:13;;;;;;;6.10;1.07;;;;;;;13.39;69.73;98112.70;1769430;81;20921;-67
2022/05/22 08:43:54;;;;;;;3.40;0.68;;;;;;;13.48;70.21;98109.66;1708386;84;21075;-66
2022/05/22 08:46:47;;;;;;;1.15;0.70;;;;;;;13.59;69.59;98104.31;1716891;83;21015;-66
2022/05/22 08:49:24;;;;;;;4.42;1.70;;;;;;;13.68;69.66;98114.30;1687647;84;21081;-64
2022/05/22 08:51:54;;;;;;;2.17;1.07;;;;;;;13.59;68.85;98112.61;1710717;83;21096;-64
2022/05/22 08:54:34;;;;;;;2.77;1.07;;;;;;;13.45;69.51;98115.14;1734219;82;21532;-65
2022/05/22 08:59:51;;;;;;;2.35;1.20;;;;;;;13.26;70.38;98114.89;1738878;82;20938;-65
2022/05/22 09:02:43;;;;;;;4.60;1.65;;;;;;;13.21;71.02;98106.11;1748118;81;21431;-67
2022/05/22 09:05:12;;;;;;;2.30;1.32;;;;;;;13.28;70.99;98125.58;1730911;82;20982;-64
2022/05/22 09:08:07;;;;;;;3.12;0.88;;;;;;;13.30;70.45;98115.52;1702792;84;20969;-66
2022/05/22 09:11:00;;;;;;;4.22;0.78;;;;;;;13.32;70.26;98114.00;1713858;82;21135;-65
2022/05/22 09:14:00;;;;;;;0.98;0.88;;;;;;;13.36;70.10;98122.32;1730601;82;21001;-68
2022/05/22 09:16:41;;;;;;;8.13;1.17;;;;;;;13.35;69.72;98118.78;1737353;81;21469;-66
2022/05/22 09:19:16;;;;;;;1.62;0.72;;;;;;;13.35;69.26;98117.39;1737012;81;21351;-66
2022/05/22 09:22:06;;;;;;;1.95;0.60;;;;;;;13.32;68.72;98120.91;1742098;81;21046;-70
2022/05/22 09:24:50;;;;;;;3.55;0.80;;;;;;;13.25;68.67;98126.33;1703411;84;21263;-67
2022/05/22 09:27:21;;;;;;;2.30;0.70;;;;;;;13.17;68.98;98120.48;1735125;82;20952;-66
2022/05/22 09:30:00;;;;;;;1.80;0.53;;;;;;;13.10;68.75;98123.33;1737976;82;21107;-66
2022/05/22 09:33:00;;;;;;;12.18;1.00;;;;;;;12.97;68.51;98115.02;1738748;82;21507;-66
2022/05/22 09:35:35;;;;;;;1.92;0.65;;;;;;;12.84;68.89;98136.55;1694226;82;20994;-69
2022/05/22 09:38:19;;;;;;;0.90;0.50;;;;;;;12.75;68.82;98136.22;1746390;82;21265;-68
2022/05/22 09:40:49;;;;;;;1.27;0.55;;;;;;;12.69;68.90;98135.51;1733462;82;20949;-67
2022/05/22 09:43:55;;;;;;;6.60;1.00;;;;;;;12.62;69.65;98134.20;1721169;82;21006;-65
2022/05/22 09:46:57;;;;;;;1.95;1.17;;;;;;;12.61;69.76;98136.75;1719524;83;21073;-66
2022/05/22 09:49:50;;;;;;;2.50;1.10;;;;;;;12.56;70.09;98132.11;1758159;81;21538;-64
2022/05/22 09:52:25;;;;;;;1.92;0.80;;;;;;;12.49;70.69;98134.97;1726684;81;21509;-66
2022/05/22 09:55:18;;;;;;;2.52;1.20;;;;;;;12.50;71.16;98141.30;1711672;81;20931;-68
2022/05/22 09:58:03;;;;;;;3.77;0.98;;;;;;;12.48;71.57;98138.09;1726755;81;20965;-65
2022/05/22 10:00:53;;;;;;;1.70;1.00;;;;;;;12.38;72.82;98149.98;1705838;83;21096;-67
2022/05/22 10:03:54;;;;;;;3.33;1.05;;;;;;;12.27;73.46;98151.14;1716644;82;21749;-67
2022/05/22 10:06:44;;;;;;;2.55;1.10;;;;;;;12.13;74.13;98146.73;1712730;82;21532;-68
2022/05/22 10:09:27;;;;;;;1.72;0.60;;;;;;;12.02;75.28;98146.48;1734415;81;21075;-66
2022/05/22 10:12:39;;;;;;;1.60;0.93;;;;;;;12.03;75.69;98156.34;1708880;83;21004;-64
2022/05/22 10:15:43;;;;;;;1.95;0.85;;;;;;;11.99;76.17;98152.73;1693756;84;21027;-64
2022/05/22 10:18:34;;;;;;;1.27;0.95;;;;;;;12.01;77.36;98159.47;1700953;83;21165;-66
2022/05/22 10:21:23;;;;;;;1.52;1.15;;;;;;;12.11;77.72;98153.97;1696369;84;21152;-66
2022/05/22 10:24:01;;;;;;;3.45;1.22;;;;;;;12.17;77.93;98155.30;1742304;81;21018;-67
2022/05/22 10:26:42;;;;;;;4.40;1.20;;;;;;;12.17;78.43;98168.30;1694301;83;21019;-68
2022/05/22 10:29:41;;;;;;;2.22;0.72;;;;;;;12.18;78.80;98160.22;1706723;82;21044;-69
2022/05/22 10:32:23;;;;;;;1.27;0.70;;;;;;;12.25;79.05;98163.70;1721853;81;21087;-66
2022/05/22 10:35:30;;;;;;;2.60;1.10;;;;;;;12.41;79.04;98156.72;1712675;82;21278;-67
2022/05/22 10:38:09;;;;;;;2.98;1.25;;;;;;;12.41;79.04;98156.72;1712961;82;21126;-67
2022/05/22 10:43:11;;;;;;;7.45;1.45;;;;;;;12.32;79.08;98165.23;1650455;83;21107;-66
2022/05/22 10:45:40;;;;;;;5.12;2.12;;;;;;;12.34;79.52;98171.19;1704188;84;20920;-67
2022/05/22 10:48:26;;;;;;;3.77;1.82;;;;;;;12.38;79.81;98164.36;1709181;83;21521;-67
2022/05/22 10:51:09;;;;;;;16.05;3.20;;;;;;;12.38;80.50;98166.55;1721870;82;21032;-68
2022/05/22 10:53:53;;;;;;;5.28;2.33;;;;;;;12.29;80.65;98175.62;1708800;82;21031;-68
2022/05/22 10:56:22;;;;;;;;;;;;;;;12.24;81.07;98166.25;1724333;83;21049;-65
2022/05/22 10:59:05;;;;;;;5.40;1.90;;;;;;;12.15;81.10;98174.75;1690711;83;20177;-65
2022/05/22 11:01:37;;;;;;;11.38;1.95;;;;;;;12.08;81.59;98158.81;1720860;83;20961;-66
2022/05/22 11:04:10;;;;;;;2.85;1.30;;;;;;;11.97;81.95;98167.47;1731679;81;21061;-68
2022/05/22 11:06:54;;;;;;;8.83;2.33;;;;;;;11.91;82.76;98167.75;1717711;83;20957;-66
2022/05/22 11:09:30;;;;;;;7.75;1.87;;;;;;;11.85;82.99;98169.78;1728156;82;21118;-65
2022/05/22 11:12:11;;;;;;;1.72;1.37;;;;;;;11.83;83.50;98179.80;1721774;83;21573;-66
2022/05/22 11:14:39;;;;;;;2.70;1.40;;;;;;;11.87;83.84;98179.31;1702981;84;21236;-66
2022/05/22 11:17:21;;;;;;;0.95;0.88;;;;;;;11.88;83.86;98178.14;1720787;83;21022;-68
2022/05/22 11:19:56;;;;;;;1.92;1.20;;;;;;;11.88;83.61;98191.13;1702736;82;21515;-65
2022/05/22 11:22:34;;;;;;;1.72;1.12;;;;;;;11.87;83.88;98192.30;1721261;83;21130;-65
2022/05/22 11:25:41;;;;;;;4.70;1.30;;;;;;;11.88;84.11;98191.94;1705209;83;21043;-66
2022/05/22 11:28:40;;;;;;;1.37;0.88;;;;;;;11.88;83.94;98189.75;1693682;84;21497;-66
2022/05/22 11:31:54;;;;;;;4.20;0.68;;;;;;;11.85;84.00;98194.05;1693234;83;38751;-66
2022/05/22 11:34:38;;;;;;;2.98;1.50;;;;;;;11.78;83.95;98196.64;1719731;82;21080;-68
2022/05/22 11:37:29;;;;;;;;;;;;;;;11.73;84.77;98193.59;1707012;83;20996;-69
2022/05/22 11:40:14;;;;;;;3.22;1.35;;;;;;;11.80;85.27;98199.25;1718011;83;20180;-66
2022/05/22 11:42:44;;;;;;;2.08;1.30;;;;;;;11.85;84.87;98193.23;1716633;83;21155;-67
2022/05/22 11:45:45;;;;;;;1.87;1.20;;;;;;;11.83;85.00;98198.31;1715143;81;21046;-66
2022/05/22 11:49:11;;;;;;;2.27;1.25;;;;;;;11.81;84.99;98200.05;1718311;83;21038;-67
2022/05/22 11:52:54;;;;;;;1.25;0.93;;;;;;;11.80;84.99;98206.75;1716398;83;20968;-66
2022/05/22 11:54:58;;;;;;;2.60;0.80;;;;;;;11.81;85.15;98208.34;1704865;84;21646;-65
2022/05/22 11:57:36;;;;;;;0.78;0.78;;;;;;;11.74;85.11;98215.06;1693378;84;21134;-66
2022/05/22 12:00:31;;;;;;;2.45;0.95;;;;;;;11.65;85.42;98214.69;1704407;84;21548;-66
2022/05/22 12:03:32;;;;;;;2.17;0.65;;;;;;;11.63;85.82;98218.98;1723001;83;20870;-66
2022/05/22 12:06:45;;;;;;;0.70;0.60;;;;;;;11.63;86.22;98217.60;1703582;84;20951;-67
2022/05/22 12:09:40;;;;;;;3.42;0.90;;;;;;;11.60;86.46;98219.10;1722679;83;20969;-65
2022/05/22 12:12:24;;;;;;;3.90;0.85;;;;;;;11.61;87.00;98219.91;1703394;82;21157;-66
2022/05/22 12:15:28;;;;;;;1.92;1.00;;;;;;;11.61;87.19;98226.81;1720025;83;21044;-67
2022/05/22 12:18:13;;;;;;;1.85;0.93;;;;;;;11.61;87.24;98218.53;1698196;84;21012;-66
2022/05/22 12:20:49;;;;;;;1.22;0.62;;;;;;;11.62;88.13;98225.06;1702002;84;21504;-65
2022/05/22 12:23:26;;;;;;;1.05;0.57;;;;;;;11.64;88.24;98230.22;1699147;82;21050;-66
2022/05/22 12:25:55;;;;;;;0.78;0.70;;;;;;;11.63;88.24;98226.69;1702247;84;21140;-67
2022/05/22 12:28:44;;;;;;;3.35;1.00;;;;;;;11.64;88.19;98227.47;1721648;83;21021;-67